Tucson, AZ

8:23 AM MST on December 05, 2016 (GMT -0700)
APRSWXNET | | Change Station

Elev 3057 ft 32.48 °N, 110.91 °W | Updated 14 minutes ago

Clear
Clear
37.0 °F
Feels Like 37.0 °F
N
0.0
Wind Variable Wind from NNW
Gusts 0.0 mph

Today
High -- | Low -- °F
--% Chance of Precip.
Yesterday
High -- | Low -- °F
Precip. -- in
Pressure 29.94 in
Visibility 10.0 miles
Clouds Clear
Dew Point 26.0 °F
Humidity 63%
Rainfall in
Snow Depth Not available.
7:11 AM 5:18 PM
Waxing Crescent, 32% visible
METAR KDMA 051358Z AUTO 14006KT 10SM CLR 06/M05 A2996 RMK AO2 SLP137 T00561053 CHINO RWY30 $
Pressure 29.94 in
Visibility 10.0 miles
Clouds Clear
Dew Point 26.0 °F
Humidity 63%
Rainfall in
Snow Depth Not available.
7:11 AM 5:18 PM
Waxing Crescent, 32% visible
METAR KDMA 051358Z AUTO 14006KT 10SM CLR 06/M05 A2996 RMK AO2 SLP137 T00561053 CHINO RWY30 $

10-Day Weather Forecast

Almanac

Astronomy

Dec. 05, 2016 Rise Set
Actual Time
Civil Twilight
Nautical Twilight
Astronomical Twilight
Moon
Length of Visible Light
Length of Day
Tomorrow will be .
, % of the Moon is Illuminated

Today's Extremes

State Highs State Lows

Community

WunderPhotos

Upload Photos

1,955,789 photos uploaded!

WunderBlog® & News

Nearby

Air Quality

  Air Quality AQ Index Pollutant
Not available.

Snow Depth

Station Depth Elevation

Earthquake Activity

City Distance Mag. Time & Date
Minimum magnitude displayed is 2.5.

Coastal Water Temperatures

Place Temperature

Stations

Nearby Weather Stations

Station Location Temp. Windchill Dew Point Humidity Wind Precip. Elev Updated Type
                   

Watches & Warnings

There are currently no watches in effect.